createdAt,value
2017-12-01T00:00:45.277Z,74.47
2017-12-01T00:03:13.540Z,74.12
2017-12-01T00:05:41.847Z,73.93
2017-12-01T00:08:10.117Z,73.11
2017-12-01T00:10:38.554Z,72.93
2017-12-01T00:13:06.858Z,72.19
2017-12-01T00:15:35.144Z,72.42
2017-12-01T00:18:03.421Z,72.42
2017-12-01T00:20:31.711Z,72.07
2017-12-01T00:22:59.982Z,72.43
2017-12-01T00:25:28.255Z,72.23
2017-12-01T00:27:56.515Z,72.15
2017-12-01T00:30:24.800Z,72.51
2017-12-01T00:32:53.068Z,72.03
2017-12-01T00:35:21.358Z,72.27
2017-12-01T00:37:49.614Z,72.60
2017-12-01T00:40:17.916Z,72.31
2017-12-01T00:42:46.209Z,72.19
2017-12-01T00:45:14.517Z,72.33
2017-12-01T00:47:42.843Z,71.85
2017-12-01T00:52:38.491Z,72.38
2017-12-01T00:55:06.827Z,72.66
2017-12-01T00:57:35.514Z,72.75
2017-12-01T01:00:04.735Z,73.27
2017-12-01T01:02:33.077Z,73.49
2017-12-01T01:05:01.361Z,73.80
2017-12-01T01:07:29.658Z,73.15
2017-12-01T01:09:58.930Z,72.73
2017-12-01T01:12:27.224Z,72.87
2017-12-01T01:14:55.480Z,73.31
2017-12-01T01:17:23.773Z,73.56
2017-12-01T01:19:52.033Z,73.64
2017-12-01T01:22:20.301Z,73.59
2017-12-01T01:24:48.567Z,73.58
2017-12-01T01:27:16.873Z,73.18
2017-12-01T01:29:45.159Z,73.00
2017-12-01T01:32:13.418Z,72.85
2017-12-01T01:34:41.747Z,72.92
2017-12-01T01:37:10.037Z,72.81
2017-12-01T01:39:38.315Z,72.63
2017-12-01T01:42:06.582Z,72.63
2017-12-01T01:44:34.864Z,72.98
2017-12-01T01:47:03.130Z,73.39
2017-12-01T01:49:31.549Z,73.39
2017-12-01T01:51:59.828Z,73.14
2017-12-01T01:54:28.131Z,73.55
2017-12-01T01:56:56.408Z,73.55
2017-12-01T01:59:24.658Z,73.42
2017-12-01T02:01:52.940Z,73.69
2017-12-01T02:04:21.200Z,73.84
2017-12-01T02:06:49.488Z,73.99
2017-12-01T02:09:17.727Z,73.95
2017-12-01T02:11:46.184Z,73.76
2017-12-01T02:14:14.445Z,73.08
2017-12-01T02:16:42.702Z,72.47
2017-12-01T02:19:10.971Z,72.07
2017-12-01T02:21:39.235Z,72.49
2017-12-01T02:24:07.713Z,72.56
2017-12-01T02:26:35.998Z,72.67
2017-12-01T02:29:04.266Z,72.45
2017-12-01T02:31:32.534Z,71.70
2017-12-01T02:34:00.825Z,71.45
2017-12-01T02:36:29.094Z,71.57
2017-12-01T02:38:57.395Z,71.65
2017-12-01T02:41:25.670Z,71.48
2017-12-01T02:43:53.943Z,72.18
2017-12-01T02:46:22.212Z,72.02
2017-12-01T02:48:50.501Z,72.50
2017-12-01T02:51:18.778Z,72.78
2017-12-01T02:53:47.081Z,72.83
2017-12-01T02:56:15.351Z,72.90
2017-12-01T02:58:43.608Z,72.82
2017-12-01T03:01:11.890Z,72.57
2017-12-01T03:03:40.161Z,72.20
2017-12-01T03:06:08.443Z,72.71
2017-12-01T03:08:36.700Z,72.58
2017-12-01T03:11:04.975Z,72.69
2017-12-01T03:13:33.240Z,72.77
2017-12-01T03:16:01.510Z,72.95
2017-12-01T03:18:29.819Z,72.68
2017-12-01T03:20:58.092Z,72.60
2017-12-01T03:23:26.395Z,72.38
2017-12-01T03:25:54.641Z,72.32
2017-12-01T03:28:22.921Z,72.14
2017-12-01T03:30:51.276Z,72.15
2017-12-01T03:33:19.542Z,72.60
2017-12-01T03:35:47.806Z,73.07
2017-12-01T03:38:16.126Z,73.28
2017-12-01T03:40:44.374Z,73.30
2017-12-01T03:43:12.647Z,73.47
2017-12-01T03:45:40.936Z,73.57
2017-12-01T03:48:09.196Z,73.56
2017-12-01T03:50:37.471Z,73.69
2017-12-01T03:53:05.763Z,73.38
2017-12-01T03:55:34.499Z,73.35
2017-12-01T03:58:02.754Z,73.67
2017-12-01T04:00:31.350Z,73.29
2017-12-01T04:02:59.643Z,73.16
2017-12-01T04:05:27.901Z,72.79
2017-12-01T04:07:57.014Z,72.96
2017-12-01T04:10:25.303Z,73.08
2017-12-01T04:12:53.589Z,73.00
2017-12-01T04:15:21.856Z,72.68
2017-12-01T04:17:50.159Z,73.35
2017-12-01T04:20:18.402Z,74.00
2017-12-01T04:22:46.730Z,73.97
2017-12-01T04:25:14.996Z,73.96
2017-12-01T04:27:43.267Z,73.98
2017-12-01T04:30:11.560Z,74.39
2017-12-01T04:32:39.835Z,74.59
2017-12-01T04:35:08.084Z,74.54
2017-12-01T04:37:36.407Z,74.34
2017-12-01T04:40:05.574Z,74.87
2017-12-01T04:42:33.852Z,75.57
2017-12-01T04:45:02.124Z,75.82
2017-12-01T04:47:30.396Z,75.93
2017-12-01T04:49:58.685Z,75.47
2017-12-01T04:52:26.941Z,75.31
2017-12-01T04:54:55.253Z,75.05
2017-12-01T04:57:23.511Z,74.99
2017-12-01T04:59:51.952Z,74.88
2017-12-01T05:02:20.225Z,74.95
2017-12-01T05:04:48.518Z,74.62
2017-12-01T05:07:16.760Z,74.51
2017-12-01T05:09:45.031Z,74.82
2017-12-01T05:12:13.336Z,74.60
2017-12-01T05:14:41.578Z,74.81
2017-12-01T05:17:09.858Z,74.68
2017-12-01T05:19:38.110Z,74.64
2017-12-01T05:22:06.529Z,74.65
2017-12-01T05:24:35.224Z,74.94
2017-12-01T05:27:03.499Z,74.79
2017-12-01T05:29:31.746Z,74.20
2017-12-01T05:32:00.024Z,73.88
2017-12-01T05:34:28.279Z,74.21
2017-12-01T05:36:56.558Z,73.59
2017-12-01T05:39:24.816Z,73.34
2017-12-01T05:41:53.124Z,73.29
2017-12-01T05:44:21.387Z,73.28
2017-12-01T05:46:50.138Z,73.19
2017-12-01T05:49:18.416Z,72.57
2017-12-01T05:51:46.700Z,71.98
2017-12-01T05:54:14.988Z,71.69
2017-12-01T05:56:43.254Z,72.14
2017-12-01T05:59:11.534Z,72.21
2017-12-01T06:01:39.800Z,72.37
2017-12-01T06:04:08.088Z,72.97
2017-12-01T06:06:36.353Z,73.22
2017-12-01T06:09:04.997Z,73.00
2017-12-01T06:11:33.247Z,72.82
2017-12-01T06:14:01.519Z,72.95
2017-12-01T06:16:29.780Z,72.89
2017-12-01T06:18:58.086Z,72.89
2017-12-01T06:21:26.751Z,72.46
2017-12-01T06:23:55.028Z,72.89
2017-12-01T06:26:23.334Z,72.81
2017-12-01T06:28:51.578Z,73.18
2017-12-01T06:31:19.865Z,73.44
2017-12-01T06:33:48.155Z,72.85
2017-12-01T06:36:16.453Z,72.86
2017-12-01T06:38:44.731Z,72.81
2017-12-01T06:41:14.088Z,72.78
2017-12-01T06:43:42.388Z,72.65
2017-12-01T06:46:10.642Z,73.26
2017-12-01T06:48:38.967Z,73.16
2017-12-01T06:51:07.282Z,73.05
2017-12-01T06:53:35.585Z,73.33
2017-12-01T06:56:03.832Z,73.51
2017-12-01T06:58:32.145Z,74.31
2017-12-01T07:01:00.383Z,74.55
2017-12-01T07:03:28.643Z,74.68
2017-12-01T07:05:56.921Z,74.80
2017-12-01T07:08:25.174Z,74.55
2017-12-01T07:10:53.485Z,74.68
2017-12-01T07:13:21.760Z,74.30
2017-12-01T07:15:50.049Z,73.80
2017-12-01T07:18:18.380Z,73.74
2017-12-01T07:20:46.643Z,74.15
2017-12-01T07:23:14.920Z,74.07
2017-12-01T07:25:43.224Z,73.94
2017-12-01T07:28:11.534Z,73.49
2017-12-01T07:30:39.787Z,73.84
2017-12-01T07:33:08.077Z,73.64
2017-12-01T07:35:36.465Z,74.03
2017-12-01T07:38:04.819Z,74.67
2017-12-01T07:40:33.133Z,74.89
2017-12-01T07:43:01.444Z,75.02
2017-12-01T07:45:29.722Z,75.03
2017-12-01T07:47:58.124Z,75.04
2017-12-01T07:50:26.513Z,74.88
2017-12-01T07:52:54.817Z,74.22
2017-12-01T07:55:23.122Z,73.85
2017-12-01T07:57:51.395Z,74.10
2017-12-01T08:00:20.179Z,73.85
2017-12-01T08:02:48.434Z,73.86
2017-12-01T08:05:16.719Z,73.98
2017-12-01T08:07:44.975Z,73.90
2017-12-01T08:10:13.239Z,74.07
2017-12-01T08:12:42.052Z,73.70
2017-12-01T08:15:10.313Z,73.53
2017-12-01T08:17:38.643Z,73.52
2017-12-01T08:20:06.894Z,72.92
2017-12-01T08:22:46.796Z,73.05
2017-12-01T08:25:24.875Z,73.41
2017-12-01T08:27:53.207Z,73.42
2017-12-01T08:30:21.467Z,73.40
2017-12-01T08:32:49.833Z,73.52
2017-12-01T08:35:18.096Z,73.19
2017-12-01T08:37:46.395Z,73.87
2017-12-01T08:40:14.795Z,73.26
2017-12-01T08:42:43.069Z,72.64
2017-12-01T08:45:11.427Z,72.54
2017-12-01T08:47:39.707Z,72.33
2017-12-01T08:50:08.040Z,72.87
2017-12-01T08:52:36.316Z,72.99
2017-12-01T08:55:05.251Z,72.76
2017-12-01T08:57:33.520Z,72.10
2017-12-01T09:00:01.894Z,71.16
2017-12-01T09:02:30.169Z,69.70
2017-12-01T09:04:58.457Z,69.41
2017-12-01T09:07:26.820Z,69.10
2017-12-01T09:09:55.115Z,69.06
2017-12-01T09:12:23.376Z,68.77
2017-12-01T09:14:52.272Z,67.54
2017-12-01T09:17:20.549Z,67.94
2017-12-01T09:19:48.832Z,68.41
2017-12-01T09:22:17.116Z,68.49
2017-12-01T09:24:45.394Z,68.96
2017-12-01T09:27:13.719Z,69.00
2017-12-01T09:29:42.076Z,68.31
2017-12-01T09:32:10.363Z,68.33
2017-12-01T09:34:38.660Z,67.59
2017-12-01T09:37:08.817Z,68.44
2017-12-01T09:39:37.163Z,68.97
2017-12-01T09:42:05.417Z,68.96
2017-12-01T09:44:33.707Z,68.84
2017-12-01T09:47:02.939Z,68.06
2017-12-01T09:49:31.355Z,68.75
2017-12-01T09:51:59.586Z,69.63
2017-12-01T09:54:27.903Z,69.02
2017-12-01T09:56:56.171Z,70.46
2017-12-01T09:59:25.004Z,70.79
2017-12-01T10:01:53.282Z,69.75
2017-12-01T10:04:21.735Z,71.23
2017-12-01T10:06:50.023Z,70.82
2017-12-01T10:09:18.339Z,70.19
2017-12-01T10:11:46.634Z,70.47
2017-12-01T10:14:14.910Z,70.69
2017-12-01T10:16:43.260Z,71.04
2017-12-01T10:19:11.482Z,70.62
2017-12-01T10:21:39.779Z,70.90
2017-12-01T10:24:08.060Z,71.11
2017-12-01T10:26:36.340Z,69.99
2017-12-01T10:29:04.687Z,70.90
2017-12-01T10:31:33.039Z,70.64
2017-12-01T10:34:01.403Z,71.99
2017-12-01T10:36:29.669Z,74.23
2017-12-01T10:38:57.918Z,75.57
2017-12-01T10:41:26.261Z,74.87
2017-12-01T10:43:54.539Z,74.22
2017-12-01T10:46:22.899Z,74.80
2017-12-01T10:48:51.264Z,75.33
2017-12-01T10:51:19.538Z,75.27
2017-12-01T10:53:47.854Z,75.64
2017-12-01T10:56:16.107Z,76.04
2017-12-01T10:58:44.384Z,75.72
2017-12-01T11:01:12.647Z,75.90
2017-12-01T11:03:41.839Z,76.61
2017-12-01T11:06:10.262Z,76.27
2017-12-01T11:08:38.559Z,77.01
2017-12-01T11:11:06.841Z,77.56
2017-12-01T11:13:35.158Z,77.63
2017-12-01T11:16:03.416Z,77.89
2017-12-01T11:18:31.905Z,78.46
2017-12-01T11:21:00.289Z,79.00
2017-12-01T11:23:28.522Z,78.67
2017-12-01T11:25:56.833Z,77.79
2017-12-01T11:28:25.108Z,77.50
2017-12-01T11:30:53.500Z,77.49
2017-12-01T11:33:21.763Z,77.59
2017-12-01T11:35:50.283Z,77.77
2017-12-01T11:38:18.538Z,76.42
2017-12-01T11:40:46.894Z,75.14
2017-12-01T11:43:15.170Z,74.90
2017-12-01T11:45:43.555Z,75.03
2017-12-01T11:48:11.886Z,74.37
2017-12-01T11:50:40.226Z,75.56
2017-12-01T11:53:08.580Z,76.86
2017-12-01T11:55:36.915Z,76.70
2017-12-01T11:58:05.243Z,75.96
2017-12-01T12:00:37.044Z,75.89
2017-12-01T12:03:05.348Z,76.58
2017-12-01T12:05:34.129Z,77.32
2017-12-01T12:08:02.418Z,76.83
2017-12-01T12:10:30.801Z,77.69
2017-12-01T12:12:59.128Z,79.06
2017-12-01T12:15:27.385Z,77.98
2017-12-01T12:17:55.716Z,76.12
2017-12-01T12:20:23.983Z,76.17
2017-12-01T12:22:52.248Z,76.95
2017-12-01T12:25:21.169Z,76.75
2017-12-01T12:27:50.394Z,77.00
2017-12-01T12:30:18.684Z,75.56
2017-12-01T12:32:47.660Z,75.24
2017-12-01T12:35:16.051Z,75.05
2017-12-01T12:37:44.327Z,75.71
2017-12-01T12:40:12.643Z,75.72
2017-12-01T12:42:40.951Z,75.67
2017-12-01T12:45:09.252Z,74.98
2017-12-01T12:47:37.640Z,73.40
2017-12-01T12:50:06.636Z,75.09
2017-12-01T12:52:35.095Z,75.37
2017-12-01T12:55:03.461Z,75.77
2017-12-01T12:57:31.794Z,74.39
2017-12-01T13:00:00.114Z,74.43
2017-12-01T13:02:28.445Z,73.62
2017-12-01T13:04:56.800Z,72.31
2017-12-01T13:07:25.076Z,71.85
2017-12-01T13:09:53.337Z,71.45
2017-12-01T13:12:21.649Z,71.26
2017-12-01T13:14:49.920Z,70.46
2017-12-01T13:17:18.311Z,70.39
2017-12-01T13:19:46.568Z,70.08
2017-12-01T13:22:14.876Z,69.78
2017-12-01T13:24:43.394Z,70.60
2017-12-01T13:27:11.687Z,71.26
2017-12-01T13:29:40.619Z,71.57
2017-12-01T13:32:08.951Z,71.45
2017-12-01T13:34:37.220Z,71.57
2017-12-01T13:37:05.926Z,71.48
2017-12-01T13:39:34.227Z,72.09
2017-12-01T13:42:02.497Z,72.17
2017-12-01T13:44:30.804Z,71.83
2017-12-01T13:46:59.096Z,72.39
2017-12-01T13:49:27.358Z,72.13
2017-12-01T13:51:55.681Z,72.43
2017-12-01T13:54:24.018Z,72.47
2017-12-01T13:56:52.301Z,72.77
2017-12-01T13:59:20.647Z,73.32
2017-12-01T14:01:49.002Z,73.33
2017-12-01T14:04:17.296Z,73.63
2017-12-01T14:06:45.643Z,73.56
2017-12-01T14:09:13.984Z,74.56
2017-12-01T14:11:42.298Z,74.73
2017-12-01T14:14:10.685Z,74.34
2017-12-01T14:16:39.067Z,73.71
2017-12-01T14:19:07.419Z,73.75
2017-12-01T14:21:35.716Z,73.26
2017-12-01T14:24:04.057Z,73.86
2017-12-01T14:26:32.322Z,73.81
2017-12-01T14:29:00.635Z,74.40
2017-12-01T14:31:29.018Z,74.01
2017-12-01T14:33:57.295Z,74.69
2017-12-01T14:36:25.616Z,74.75
2017-12-01T14:38:53.939Z,74.33
2017-12-01T14:41:22.360Z,74.75
2017-12-01T14:43:50.732Z,75.06
2017-12-01T14:46:19.089Z,74.62
2017-12-01T14:48:47.352Z,74.32
2017-12-01T14:51:15.663Z,75.02
2017-12-01T14:53:44.003Z,73.75
2017-12-01T14:56:12.319Z,73.68
2017-12-01T14:58:40.671Z,72.92
2017-12-01T15:01:08.973Z,73.98
2017-12-01T15:03:37.267Z,73.43
2017-12-01T15:06:05.566Z,73.86
2017-12-01T15:08:33.935Z,73.65
2017-12-01T15:11:02.221Z,74.56
2017-12-01T15:13:30.550Z,73.87
2017-12-01T15:15:58.849Z,74.13
2017-12-01T15:18:27.150Z,74.06
2017-12-01T15:20:57.166Z,74.58
2017-12-01T15:23:25.531Z,74.79
2017-12-01T15:25:53.827Z,74.78
2017-12-01T15:28:22.088Z,75.12
2017-12-01T15:30:50.376Z,74.96
2017-12-01T15:33:18.675Z,75.02
2017-12-01T15:35:46.950Z,74.68
2017-12-01T15:38:15.345Z,74.30
2017-12-01T15:40:43.680Z,73.41
2017-12-01T15:43:12.032Z,73.37
2017-12-01T15:45:40.298Z,73.75
2017-12-01T15:48:08.606Z,74.02
2017-12-01T15:50:36.883Z,73.85
2017-12-01T15:53:05.418Z,72.95
2017-12-01T15:55:33.814Z,73.55
2017-12-01T15:58:02.126Z,73.08
2017-12-01T16:00:30.451Z,72.84
2017-12-01T16:02:59.649Z,72.37
2017-12-01T16:05:27.930Z,72.27
2017-12-01T16:07:56.182Z,73.49
2017-12-01T16:10:24.528Z,73.34
2017-12-01T16:12:52.811Z,73.42
2017-12-01T16:15:21.196Z,72.97
2017-12-01T16:17:49.463Z,73.48
2017-12-01T16:20:17.790Z,73.28
2017-12-01T16:22:46.087Z,73.69
2017-12-01T16:25:14.366Z,73.48
2017-12-01T16:27:42.668Z,73.27
2017-12-01T16:30:11.764Z,72.77
2017-12-01T16:32:42.434Z,73.66
2017-12-01T16:35:08.416Z,73.73
2017-12-01T16:37:36.728Z,73.67
2017-12-01T16:40:05.282Z,73.43
2017-12-01T16:42:33.587Z,73.44
2017-12-01T16:45:01.848Z,72.53
2017-12-01T16:47:30.178Z,72.78
2017-12-01T16:49:59.385Z,86.60
2017-12-01T16:52:27.734Z,77.05
2017-12-01T16:54:56.088Z,62.85
2017-12-01T16:57:24.373Z,57.24
2017-12-01T16:59:52.656Z,51.72
2017-12-01T17:02:20.918Z,58.19
2017-12-01T17:04:49.222Z,62.29
2017-12-01T17:07:17.494Z,64.55
2017-12-01T17:09:45.788Z,66.37
2017-12-01T17:12:14.052Z,67.03
2017-12-01T17:14:42.309Z,68.32
2017-12-01T17:17:10.622Z,68.41
2017-12-01T17:19:38.966Z,68.79
2017-12-01T17:22:07.276Z,69.26
2017-12-01T17:24:35.611Z,69.40
2017-12-01T17:27:03.900Z,69.64
2017-12-01T17:29:32.151Z,70.04
2017-12-01T17:32:01.539Z,70.26
2017-12-01T17:34:29.852Z,69.73
2017-12-01T17:36:58.559Z,69.23
2017-12-01T17:39:26.945Z,70.86
2017-12-01T17:41:55.249Z,71.83
2017-12-01T17:44:23.555Z,72.92
2017-12-01T17:46:51.859Z,73.92
2017-12-01T17:49:20.170Z,73.71
2017-12-01T17:51:48.453Z,73.00
2017-12-01T17:54:18.400Z,73.25
2017-12-01T17:56:46.681Z,73.71
2017-12-01T17:59:15.831Z,73.28
2017-12-01T18:01:44.102Z,73.45
2017-12-01T18:04:12.409Z,73.10
2017-12-01T18:06:40.732Z,72.94
2017-12-01T18:09:08.996Z,72.51
2017-12-01T18:11:37.254Z,72.22
2017-12-01T18:14:05.652Z,72.28
2017-12-01T18:16:33.915Z,71.45
2017-12-01T18:19:02.192Z,71.77
2017-12-01T18:21:30.952Z,71.27
2017-12-01T18:23:59.227Z,71.31
2017-12-01T18:26:27.520Z,71.40
2017-12-01T18:28:55.792Z,71.68
2017-12-01T18:31:24.079Z,71.00
2017-12-01T18:33:52.430Z,71.04
2017-12-01T18:36:20.749Z,71.40
2017-12-01T18:38:49.005Z,71.49
2017-12-01T18:41:17.290Z,71.68
2017-12-01T18:43:45.592Z,71.29
2017-12-01T18:46:13.836Z,71.61
2017-12-01T18:48:42.143Z,71.11
2017-12-01T18:51:10.416Z,71.10
2017-12-01T18:53:38.732Z,72.00
2017-12-01T18:56:07.035Z,72.24
2017-12-01T18:58:35.376Z,71.17
2017-12-01T19:01:03.759Z,70.72
2017-12-01T19:03:32.019Z,71.20
2017-12-01T19:06:00.298Z,71.46
2017-12-01T19:08:28.638Z,71.68
2017-12-01T19:10:56.900Z,71.17
2017-12-01T19:13:25.183Z,71.86
2017-12-01T19:15:53.527Z,72.87
2017-12-01T19:18:21.738Z,72.61
2017-12-01T19:20:50.056Z,72.47
2017-12-01T19:23:18.338Z,71.77
2017-12-01T19:25:46.595Z,71.47
2017-12-01T19:28:14.878Z,71.70
2017-12-01T19:30:43.190Z,71.56
2017-12-01T19:33:11.464Z,71.00
2017-12-01T19:35:39.784Z,71.39
2017-12-01T19:38:08.144Z,71.56
2017-12-01T19:40:36.499Z,71.00
2017-12-01T19:43:04.817Z,71.42
2017-12-01T19:45:33.092Z,71.28
2017-12-01T19:48:01.455Z,71.20
2017-12-01T19:50:29.732Z,71.63
2017-12-01T19:52:58.033Z,71.57
2017-12-01T19:55:26.296Z,71.51
2017-12-01T19:57:54.632Z,71.15
2017-12-01T20:00:22.895Z,71.55
2017-12-01T20:02:51.192Z,71.74
2017-12-01T20:05:19.488Z,71.81
2017-12-01T20:07:47.779Z,71.23
2017-12-01T20:10:17.061Z,71.59
2017-12-01T20:12:45.333Z,71.22
2017-12-01T20:15:13.639Z,71.54
2017-12-01T20:17:41.932Z,71.98
2017-12-01T20:20:10.196Z,71.27
2017-12-01T20:22:38.504Z,70.92
2017-12-01T20:25:06.829Z,71.01
2017-12-01T20:27:35.147Z,71.69
2017-12-01T20:30:03.411Z,71.17
2017-12-01T20:32:31.760Z,70.96
2017-12-01T20:35:00.049Z,71.10
2017-12-01T20:37:28.332Z,71.17
2017-12-01T20:39:56.859Z,70.97
2017-12-01T20:42:25.279Z,70.78
2017-12-01T20:44:53.579Z,70.74
2017-12-01T20:47:21.845Z,70.78
2017-12-01T20:49:50.158Z,70.99
2017-12-01T20:52:18.446Z,70.96
2017-12-01T20:54:47.426Z,70.84
2017-12-01T20:57:15.680Z,71.36
2017-12-01T20:59:43.992Z,71.09
2017-12-01T21:02:12.296Z,71.08
2017-12-01T21:04:40.590Z,70.96
2017-12-01T21:07:08.903Z,71.38
2017-12-01T21:09:37.201Z,71.23
2017-12-01T21:12:05.485Z,71.10
2017-12-01T21:14:33.812Z,71.19
2017-12-01T21:17:03.675Z,72.24
2017-12-01T21:19:31.937Z,72.59
2017-12-01T21:22:00.314Z,72.19
2017-12-01T21:24:28.589Z,72.18
2017-12-01T21:26:57.898Z,72.07
2017-12-01T21:29:26.151Z,72.16
2017-12-01T21:31:54.422Z,72.79
2017-12-01T21:34:22.891Z,73.18
2017-12-01T21:36:51.285Z,72.75
2017-12-01T21:39:19.615Z,72.43
2017-12-01T21:41:47.911Z,72.11
2017-12-01T21:44:16.235Z,72.17
2017-12-01T21:46:44.507Z,72.51
2017-12-01T21:49:12.803Z,72.69
2017-12-01T21:51:41.088Z,72.42
2017-12-01T21:54:09.367Z,72.46
2017-12-01T21:56:37.643Z,72.66
2017-12-01T21:59:05.971Z,72.61
2017-12-01T22:01:34.763Z,72.70
2017-12-01T22:04:03.040Z,72.64
2017-12-01T22:06:31.356Z,71.08
2017-12-01T22:08:59.643Z,71.71
2017-12-01T22:11:27.963Z,71.35
2017-12-01T22:13:56.270Z,70.43
2017-12-01T22:16:24.665Z,70.68
2017-12-01T22:18:52.967Z,70.74
2017-12-01T22:21:21.247Z,70.86
2017-12-01T22:23:50.197Z,70.89
2017-12-01T22:26:18.495Z,70.72
2017-12-01T22:28:47.716Z,70.92
2017-12-01T22:31:16.248Z,71.22
2017-12-01T22:33:44.622Z,70.65
2017-12-01T22:36:12.942Z,70.89
2017-12-01T22:38:41.324Z,70.96
2017-12-01T22:41:09.684Z,71.06
2017-12-01T22:43:38.018Z,71.12
2017-12-01T22:46:12.354Z,71.27
2017-12-01T22:48:40.632Z,71.32
2017-12-01T22:51:08.917Z,71.09
2017-12-01T22:53:37.234Z,71.30
2017-12-01T22:56:05.499Z,70.94
2017-12-01T22:58:34.169Z,71.70
2017-12-01T23:01:02.474Z,71.22
2017-12-01T23:03:30.735Z,71.91
2017-12-01T23:05:59.010Z,72.02
2017-12-01T23:08:27.304Z,72.05
2017-12-01T23:10:55.597Z,71.56
2017-12-01T23:13:23.908Z,70.90
2017-12-01T23:15:52.186Z,70.95
2017-12-01T23:18:20.479Z,71.00
2017-12-01T23:20:48.770Z,70.49
2017-12-01T23:23:17.040Z,70.36
2017-12-01T23:25:45.361Z,70.62
2017-12-01T23:28:13.631Z,71.11
2017-12-01T23:30:41.957Z,70.81
2017-12-01T23:33:10.261Z,71.08
2017-12-01T23:35:38.559Z,70.42
2017-12-01T23:38:06.847Z,69.89
2017-12-01T23:40:35.167Z,69.64
2017-12-01T23:43:03.427Z,69.73
2017-12-01T23:45:31.729Z,70.21
2017-12-01T23:48:00.053Z,70.51
2017-12-01T23:50:28.427Z,70.79
2017-12-01T23:52:56.699Z,71.53
2017-12-01T23:55:24.970Z,71.37
2017-12-01T23:57:53.253Z,71.39
